sensor_id;sensor_type;location;lat;lon;timestamp;P1;durP1;ratioP1;P2;durP2;ratioP2
5795;SDS011;2924;51.458;7.046;2023-07-13T00:02:09;8.33;;;1.43;;
5795;SDS011;2924;51.458;7.046;2023-07-13T00:04:35;7.30;;;1.80;;
5795;SDS011;2924;51.458;7.046;2023-07-13T00:07:01;4.40;;;1.27;;
5795;SDS011;2924;51.458;7.046;2023-07-13T00:09:27;4.77;;;1.20;;
5795;SDS011;2924;51.458;7.046;2023-07-13T00:11:54;3.00;;;1.23;;
5795;SDS011;2924;51.458;7.046;2023-07-13T00:14:21;4.03;;;1.70;;
5795;SDS011;2924;51.458;7.046;2023-07-13T00:16:48;4.77;;;1.50;;
5795;SDS011;2924;51.458;7.046;2023-07-13T00:19:13;2.63;;;1.57;;
5795;SDS011;2924;51.458;7.046;2023-07-13T00:21:40;11.40;;;1.60;;
5795;SDS011;2924;51.458;7.046;2023-07-13T00:24:07;5.20;;;1.90;;
5795;SDS011;2924;51.458;7.046;2023-07-13T00:26:37;6.37;;;2.10;;
5795;SDS011;2924;51.458;7.046;2023-07-13T00:29:03;9.37;;;1.77;;
5795;SDS011;2924;51.458;7.046;2023-07-13T00:31:33;5.50;;;1.80;;
5795;SDS011;2924;51.458;7.046;2023-07-13T00:33:59;6.87;;;1.33;;
5795;SDS011;2924;51.458;7.046;2023-07-13T00:36:25;6.50;;;1.70;;
5795;SDS011;2924;51.458;7.046;2023-07-13T00:38:51;3.67;;;1.20;;
5795;SDS011;2924;51.458;7.046;2023-07-13T00:41:17;4.27;;;1.90;;
5795;SDS011;2924;51.458;7.046;2023-07-13T00:43:42;2.83;;;1.60;;
5795;SDS011;2924;51.458;7.046;2023-07-13T00:46:20;6.63;;;1.43;;
5795;SDS011;2924;51.458;7.046;2023-07-13T00:48:54;6.03;;;1.93;;
5795;SDS011;2924;51.458;7.046;2023-07-13T00:51:25;6.87;;;1.50;;
5795;SDS011;2924;51.458;7.046;2023-07-13T00:53:55;6.30;;;2.23;;
5795;SDS011;2924;51.458;7.046;2023-07-13T00:56:22;7.90;;;1.73;;
5795;SDS011;2924;51.458;7.046;2023-07-13T00:58:49;7.93;;;2.17;;
5795;SDS011;2924;51.458;7.046;2023-07-13T01:01:15;17.03;;;1.63;;
5795;SDS011;2924;51.458;7.046;2023-07-13T01:03:40;5.53;;;1.80;;
5795;SDS011;2924;51.458;7.046;2023-07-13T01:06:06;4.80;;;1.23;;
5795;SDS011;2924;51.458;7.046;2023-07-13T01:08:32;2.80;;;1.50;;
5795;SDS011;2924;51.458;7.046;2023-07-13T01:10:58;5.33;;;2.13;;
5795;SDS011;2924;51.458;7.046;2023-07-13T01:13:24;6.70;;;1.70;;
5795;SDS011;2924;51.458;7.046;2023-07-13T01:19:12;2.47;;;1.30;;
5795;SDS011;2924;51.458;7.046;2023-07-13T01:21:51;6.13;;;1.10;;
5795;SDS011;2924;51.458;7.046;2023-07-13T01:24:17;6.97;;;1.67;;
5795;SDS011;2924;51.458;7.046;2023-07-13T01:26:43;3.00;;;1.23;;
5795;SDS011;2924;51.458;7.046;2023-07-13T01:29:09;6.70;;;1.80;;
5795;SDS011;2924;51.458;7.046;2023-07-13T01:31:34;6.70;;;1.37;;
5795;SDS011;2924;51.458;7.046;2023-07-13T01:34:00;3.30;;;1.33;;
5795;SDS011;2924;51.458;7.046;2023-07-13T01:36:25;4.93;;;1.23;;
5795;SDS011;2924;51.458;7.046;2023-07-13T01:38:51;6.77;;;1.77;;
5795;SDS011;2924;51.458;7.046;2023-07-13T01:41:17;5.30;;;1.30;;
5795;SDS011;2924;51.458;7.046;2023-07-13T01:43:43;9.47;;;2.53;;
5795;SDS011;2924;51.458;7.046;2023-07-13T01:46:08;3.43;;;1.00;;
5795;SDS011;2924;51.458;7.046;2023-07-13T01:48:34;6.23;;;1.87;;
5795;SDS011;2924;51.458;7.046;2023-07-13T01:51:00;11.73;;;1.40;;
5795;SDS011;2924;51.458;7.046;2023-07-13T01:53:25;7.87;;;1.93;;
5795;SDS011;2924;51.458;7.046;2023-07-13T01:55:51;5.93;;;1.53;;
5795;SDS011;2924;51.458;7.046;2023-07-13T01:58:17;9.27;;;2.37;;
5795;SDS011;2924;51.458;7.046;2023-07-13T02:00:43;5.70;;;1.10;;
5795;SDS011;2924;51.458;7.046;2023-07-13T02:03:08;8.93;;;1.60;;
5795;SDS011;2924;51.458;7.046;2023-07-13T02:05:34;6.27;;;1.70;;
5795;SDS011;2924;51.458;7.046;2023-07-13T02:08:01;5.27;;;1.37;;
5795;SDS011;2924;51.458;7.046;2023-07-13T02:10:27;4.30;;;1.20;;
5795;SDS011;2924;51.458;7.046;2023-07-13T02:12:53;8.07;;;1.93;;
5795;SDS011;2924;51.458;7.046;2023-07-13T02:15:19;6.00;;;1.27;;
5795;SDS011;2924;51.458;7.046;2023-07-13T02:17:44;4.03;;;1.30;;
5795;SDS011;2924;51.458;7.046;2023-07-13T02:20:11;6.60;;;1.50;;
5795;SDS011;2924;51.458;7.046;2023-07-13T02:22:37;4.57;;;1.47;;
5795;SDS011;2924;51.458;7.046;2023-07-13T02:25:02;7.63;;;1.23;;
5795;SDS011;2924;51.458;7.046;2023-07-13T02:27:28;7.53;;;1.87;;
5795;SDS011;2924;51.458;7.046;2023-07-13T02:29:54;6.00;;;1.50;;
5795;SDS011;2924;51.458;7.046;2023-07-13T02:32:20;5.93;;;1.50;;
5795;SDS011;2924;51.458;7.046;2023-07-13T02:34:45;3.90;;;1.30;;
5795;SDS011;2924;51.458;7.046;2023-07-13T02:37:11;3.27;;;1.60;;
5795;SDS011;2924;51.458;7.046;2023-07-13T02:39:37;3.40;;;1.60;;
5795;SDS011;2924;51.458;7.046;2023-07-13T02:42:02;5.10;;;1.60;;
5795;SDS011;2924;51.458;7.046;2023-07-13T02:44:28;7.93;;;1.60;;
5795;SDS011;2924;51.458;7.046;2023-07-13T02:46:54;1.17;;;0.80;;
5795;SDS011;2924;51.458;7.046;2023-07-13T02:49:19;6.40;;;1.57;;
5795;SDS011;2924;51.458;7.046;2023-07-13T02:51:45;9.33;;;1.97;;
5795;SDS011;2924;51.458;7.046;2023-07-13T02:54:11;5.60;;;1.60;;
5795;SDS011;2924;51.458;7.046;2023-07-13T02:56:38;9.33;;;1.97;;
5795;SDS011;2924;51.458;7.046;2023-07-13T02:59:04;3.17;;;1.50;;
5795;SDS011;2924;51.458;7.046;2023-07-13T03:01:30;5.97;;;1.17;;
5795;SDS011;2924;51.458;7.046;2023-07-13T03:03:57;3.67;;;1.00;;
5795;SDS011;2924;51.458;7.046;2023-07-13T03:06:23;9.03;;;1.50;;
5795;SDS011;2924;51.458;7.046;2023-07-13T03:08:49;5.03;;;1.00;;
5795;SDS011;2924;51.458;7.046;2023-07-13T03:11:17;5.60;;;1.30;;
5795;SDS011;2924;51.458;7.046;2023-07-13T03:13:44;7.57;;;1.70;;
5795;SDS011;2924;51.458;7.046;2023-07-13T03:16:11;8.30;;;1.80;;
5795;SDS011;2924;51.458;7.046;2023-07-13T03:18:37;8.43;;;1.53;;
5795;SDS011;2924;51.458;7.046;2023-07-13T03:21:03;5.53;;;1.53;;
5795;SDS011;2924;51.458;7.046;2023-07-13T03:23:31;7.03;;;2.10;;
5795;SDS011;2924;51.458;7.046;2023-07-13T03:26:01;6.10;;;1.70;;
5795;SDS011;2924;51.458;7.046;2023-07-13T03:28:32;5.60;;;1.60;;
5795;SDS011;2924;51.458;7.046;2023-07-13T03:31:01;9.23;;;1.93;;
5795;SDS011;2924;51.458;7.046;2023-07-13T03:33:34;7.77;;;1.43;;
5795;SDS011;2924;51.458;7.046;2023-07-13T03:36:00;12.20;;;1.83;;
5795;SDS011;2924;51.458;7.046;2023-07-13T03:38:26;2.10;;;1.03;;
5795;SDS011;2924;51.458;7.046;2023-07-13T03:40:52;4.00;;;1.10;;
5795;SDS011;2924;51.458;7.046;2023-07-13T03:43:18;7.77;;;2.33;;
5795;SDS011;2924;51.458;7.046;2023-07-13T03:45:45;11.37;;;2.27;;
5795;SDS011;2924;51.458;7.046;2023-07-13T03:48:11;3.00;;;1.60;;
5795;SDS011;2924;51.458;7.046;2023-07-13T03:50:36;12.33;;;2.13;;
5795;SDS011;2924;51.458;7.046;2023-07-13T03:53:03;4.40;;;1.60;;
5795;SDS011;2924;51.458;7.046;2023-07-13T03:55:29;6.93;;;1.70;;
5795;SDS011;2924;51.458;7.046;2023-07-13T03:57:58;7.80;;;1.70;;
5795;SDS011;2924;51.458;7.046;2023-07-13T04:00:43;6.43;;;1.40;;
5795;SDS011;2924;51.458;7.046;2023-07-13T04:03:09;9.30;;;2.27;;
5795;SDS011;2924;51.458;7.046;2023-07-13T04:05:34;9.63;;;1.60;;
5795;SDS011;2924;51.458;7.046;2023-07-13T04:08:01;10.30;;;2.07;;
5795;SDS011;2924;51.458;7.046;2023-07-13T04:10:26;5.83;;;2.03;;
5795;SDS011;2924;51.458;7.046;2023-07-13T04:12:53;6.73;;;1.60;;
5795;SDS011;2924;51.458;7.046;2023-07-13T04:15:18;5.73;;;1.70;;
5795;SDS011;2924;51.458;7.046;2023-07-13T04:17:44;12.83;;;1.93;;
5795;SDS011;2924;51.458;7.046;2023-07-13T04:20:10;7.93;;;1.33;;
5795;SDS011;2924;51.458;7.046;2023-07-13T04:22:36;4.93;;;1.37;;
5795;SDS011;2924;51.458;7.046;2023-07-13T04:25:02;8.13;;;1.40;;
5795;SDS011;2924;51.458;7.046;2023-07-13T04:27:29;7.63;;;1.60;;
5795;SDS011;2924;51.458;7.046;2023-07-13T04:29:55;8.63;;;1.77;;
5795;SDS011;2924;51.458;7.046;2023-07-13T04:32:21;7.20;;;1.30;;
5795;SDS011;2924;51.458;7.046;2023-07-13T04:34:46;13.57;;;2.80;;
5795;SDS011;2924;51.458;7.046;2023-07-13T04:37:12;7.07;;;1.90;;
5795;SDS011;2924;51.458;7.046;2023-07-13T04:39:37;8.93;;;1.70;;
5795;SDS011;2924;51.458;7.046;2023-07-13T04:42:03;5.40;;;1.50;;
5795;SDS011;2924;51.458;7.046;2023-07-13T04:44:29;11.93;;;2.40;;
5795;SDS011;2924;51.458;7.046;2023-07-13T04:46:55;4.30;;;1.30;;
5795;SDS011;2924;51.458;7.046;2023-07-13T04:49:20;7.50;;;2.53;;
5795;SDS011;2924;51.458;7.046;2023-07-13T04:51:46;8.70;;;1.60;;
5795;SDS011;2924;51.458;7.046;2023-07-13T04:54:11;9.33;;;1.90;;
5795;SDS011;2924;51.458;7.046;2023-07-13T04:56:37;6.90;;;1.43;;
5795;SDS011;2924;51.458;7.046;2023-07-13T04:59:02;8.10;;;1.90;;
5795;SDS011;2924;51.458;7.046;2023-07-13T05:01:28;3.37;;;1.23;;
5795;SDS011;2924;51.458;7.046;2023-07-13T05:03:53;8.47;;;1.90;;
5795;SDS011;2924;51.458;7.046;2023-07-13T05:06:21;7.37;;;1.47;;
5795;SDS011;2924;51.458;7.046;2023-07-13T05:08:46;9.23;;;2.50;;
5795;SDS011;2924;51.458;7.046;2023-07-13T05:11:12;12.83;;;2.13;;
5795;SDS011;2924;51.458;7.046;2023-07-13T05:13:37;5.60;;;2.20;;
5795;SDS011;2924;51.458;7.046;2023-07-13T05:16:04;7.27;;;1.83;;
5795;SDS011;2924;51.458;7.046;2023-07-13T05:18:33;9.80;;;1.77;;
5795;SDS011;2924;51.458;7.046;2023-07-13T05:21:00;9.43;;;2.40;;
5795;SDS011;2924;51.458;7.046;2023-07-13T05:23:28;5.03;;;1.40;;
5795;SDS011;2924;51.458;7.046;2023-07-13T05:25:55;10.53;;;2.37;;
5795;SDS011;2924;51.458;7.046;2023-07-13T05:28:21;7.23;;;2.20;;
5795;SDS011;2924;51.458;7.046;2023-07-13T05:30:47;8.47;;;2.00;;
5795;SDS011;2924;51.458;7.046;2023-07-13T05:33:13;8.53;;;2.57;;
5795;SDS011;2924;51.458;7.046;2023-07-13T05:35:39;8.10;;;2.23;;
5795;SDS011;2924;51.458;7.046;2023-07-13T05:38:05;10.10;;;1.97;;
5795;SDS011;2924;51.458;7.046;2023-07-13T05:40:30;7.37;;;2.20;;
5795;SDS011;2924;51.458;7.046;2023-07-13T05:42:56;13.87;;;2.20;;
5795;SDS011;2924;51.458;7.046;2023-07-13T05:45:21;9.60;;;2.70;;
5795;SDS011;2924;51.458;7.046;2023-07-13T05:47:47;4.97;;;2.00;;
5795;SDS011;2924;51.458;7.046;2023-07-13T05:50:13;18.80;;;2.87;;
5795;SDS011;2924;51.458;7.046;2023-07-13T05:52:38;10.70;;;2.33;;
5795;SDS011;2924;51.458;7.046;2023-07-13T05:55:04;8.53;;;2.10;;
5795;SDS011;2924;51.458;7.046;2023-07-13T05:57:30;10.93;;;2.20;;
5795;SDS011;2924;51.458;7.046;2023-07-13T05:59:56;12.13;;;3.17;;
5795;SDS011;2924;51.458;7.046;2023-07-13T06:02:22;10.13;;;2.50;;
5795;SDS011;2924;51.458;7.046;2023-07-13T06:04:48;12.53;;;2.63;;
5795;SDS011;2924;51.458;7.046;2023-07-13T06:07:13;6.20;;;2.30;;
5795;SDS011;2924;51.458;7.046;2023-07-13T06:09:39;9.00;;;2.23;;
5795;SDS011;2924;51.458;7.046;2023-07-13T06:12:05;11.10;;;1.93;;
5795;SDS011;2924;51.458;7.046;2023-07-13T06:14:31;6.00;;;2.40;;
5795;SDS011;2924;51.458;7.046;2023-07-13T06:16:57;8.50;;;2.40;;
5795;SDS011;2924;51.458;7.046;2023-07-13T06:19:23;11.80;;;2.23;;
5795;SDS011;2924;51.458;7.046;2023-07-13T06:21:48;13.87;;;2.73;;
5795;SDS011;2924;51.458;7.046;2023-07-13T06:24:14;9.30;;;2.70;;
5795;SDS011;2924;51.458;7.046;2023-07-13T06:26:39;5.47;;;2.07;;
5795;SDS011;2924;51.458;7.046;2023-07-13T06:29:05;10.83;;;3.47;;
5795;SDS011;2924;51.458;7.046;2023-07-13T06:31:30;7.43;;;2.67;;
5795;SDS011;2924;51.458;7.046;2023-07-13T06:33:56;5.97;;;2.87;;
5795;SDS011;2924;51.458;7.046;2023-07-13T06:36:22;5.30;;;2.23;;
5795;SDS011;2924;51.458;7.046;2023-07-13T06:38:47;10.83;;;2.20;;
5795;SDS011;2924;51.458;7.046;2023-07-13T06:41:13;11.13;;;2.50;;
5795;SDS011;2924;51.458;7.046;2023-07-13T06:43:39;20.60;;;2.60;;
5795;SDS011;2924;51.458;7.046;2023-07-13T06:46:04;7.27;;;2.53;;
5795;SDS011;2924;51.458;7.046;2023-07-13T06:48:30;11.67;;;3.20;;
5795;SDS011;2924;51.458;7.046;2023-07-13T06:50:56;9.87;;;3.03;;
5795;SDS011;2924;51.458;7.046;2023-07-13T06:53:22;9.17;;;2.80;;
5795;SDS011;2924;51.458;7.046;2023-07-13T06:55:47;8.40;;;2.30;;
5795;SDS011;2924;51.458;7.046;2023-07-13T06:58:15;13.10;;;2.80;;
5795;SDS011;2924;51.458;7.046;2023-07-13T07:00:41;6.23;;;2.63;;
5795;SDS011;2924;51.458;7.046;2023-07-13T07:03:07;8.37;;;2.80;;
5795;SDS011;2924;51.458;7.046;2023-07-13T07:05:32;7.50;;;2.60;;
5795;SDS011;2924;51.458;7.046;2023-07-13T07:07:58;8.07;;;2.27;;
5795;SDS011;2924;51.458;7.046;2023-07-13T07:10:24;11.93;;;2.90;;
5795;SDS011;2924;51.458;7.046;2023-07-13T07:12:51;8.83;;;3.13;;
5795;SDS011;2924;51.458;7.046;2023-07-13T07:15:16;8.87;;;3.30;;
5795;SDS011;2924;51.458;7.046;2023-07-13T07:17:42;9.23;;;2.37;;
5795;SDS011;2924;51.458;7.046;2023-07-13T07:20:08;12.20;;;2.33;;
5795;SDS011;2924;51.458;7.046;2023-07-13T07:22:34;6.80;;;2.60;;
5795;SDS011;2924;51.458;7.046;2023-07-13T07:25:00;14.37;;;3.70;;
5795;SDS011;2924;51.458;7.046;2023-07-13T07:27:26;12.13;;;2.73;;
5795;SDS011;2924;51.458;7.046;2023-07-13T07:29:51;11.20;;;3.23;;
5795;SDS011;2924;51.458;7.046;2023-07-13T07:32:17;15.13;;;3.23;;
5795;SDS011;2924;51.458;7.046;2023-07-13T07:34:44;6.20;;;2.80;;
5795;SDS011;2924;51.458;7.046;2023-07-13T07:37:11;10.47;;;2.70;;
5795;SDS011;2924;51.458;7.046;2023-07-13T07:39:37;11.50;;;3.20;;
5795;SDS011;2924;51.458;7.046;2023-07-13T07:42:03;7.33;;;2.20;;
5795;SDS011;2924;51.458;7.046;2023-07-13T07:44:30;17.27;;;3.60;;
5795;SDS011;2924;51.458;7.046;2023-07-13T07:46:56;9.93;;;3.23;;
5795;SDS011;2924;51.458;7.046;2023-07-13T07:49:22;12.23;;;3.00;;
5795;SDS011;2924;51.458;7.046;2023-07-13T07:51:47;8.43;;;3.17;;
5795;SDS011;2924;51.458;7.046;2023-07-13T07:54:13;5.40;;;2.80;;
5795;SDS011;2924;51.458;7.046;2023-07-13T07:56:39;12.60;;;3.13;;
5795;SDS011;2924;51.458;7.046;2023-07-13T07:59:05;9.53;;;3.67;;
5795;SDS011;2924;51.458;7.046;2023-07-13T08:01:31;9.93;;;3.10;;
5795;SDS011;2924;51.458;7.046;2023-07-13T08:03:56;11.53;;;3.57;;
5795;SDS011;2924;51.458;7.046;2023-07-13T08:06:22;14.80;;;2.60;;
5795;SDS011;2924;51.458;7.046;2023-07-13T08:08:48;9.13;;;3.10;;
5795;SDS011;2924;51.458;7.046;2023-07-13T08:11:14;10.23;;;3.60;;
5795;SDS011;2924;51.458;7.046;2023-07-13T08:13:42;9.17;;;3.17;;
5795;SDS011;2924;51.458;7.046;2023-07-13T08:16:07;8.17;;;2.60;;
5795;SDS011;2924;51.458;7.046;2023-07-13T08:18:33;11.57;;;3.33;;
5795;SDS011;2924;51.458;7.046;2023-07-13T08:21:02;8.53;;;3.00;;
5795;SDS011;2924;51.458;7.046;2023-07-13T08:23:29;8.60;;;2.83;;
5795;SDS011;2924;51.458;7.046;2023-07-13T08:25:54;13.83;;;3.37;;
5795;SDS011;2924;51.458;7.046;2023-07-13T08:28:21;9.73;;;2.87;;
5795;SDS011;2924;51.458;7.046;2023-07-13T08:30:47;6.10;;;2.80;;
5795;SDS011;2924;51.458;7.046;2023-07-13T08:33:14;10.33;;;3.17;;
5795;SDS011;2924;51.458;7.046;2023-07-13T08:35:40;11.53;;;2.63;;
5795;SDS011;2924;51.458;7.046;2023-07-13T08:38:06;9.77;;;2.40;;
5795;SDS011;2924;51.458;7.046;2023-07-13T08:40:31;8.47;;;2.93;;
5795;SDS011;2924;51.458;7.046;2023-07-13T08:42:59;7.87;;;1.80;;
5795;SDS011;2924;51.458;7.046;2023-07-13T08:50:50;9.97;;;2.40;;
5795;SDS011;2924;51.458;7.046;2023-07-13T08:53:26;8.83;;;2.23;;
5795;SDS011;2924;51.458;7.046;2023-07-13T08:56:11;8.80;;;2.50;;
5795;SDS011;2924;51.458;7.046;2023-07-13T08:58:42;8.93;;;2.63;;
5795;SDS011;2924;51.458;7.046;2023-07-13T09:09:48;8.50;;;3.13;;
5795;SDS011;2924;51.458;7.046;2023-07-13T09:12:38;5.90;;;2.37;;
5795;SDS011;2924;51.458;7.046;2023-07-13T09:17:57;6.90;;;2.30;;
5795;SDS011;2924;51.458;7.046;2023-07-13T09:20:43;6.00;;;2.37;;
5795;SDS011;2924;51.458;7.046;2023-07-13T09:23:17;5.40;;;2.40;;
5795;SDS011;2924;51.458;7.046;2023-07-13T09:25:49;15.13;;;3.00;;
5795;SDS011;2924;51.458;7.046;2023-07-13T09:28:28;4.80;;;2.00;;
5795;SDS011;2924;51.458;7.046;2023-07-13T09:31:03;6.23;;;3.20;;
5795;SDS011;2924;51.458;7.046;2023-07-13T09:33:32;8.10;;;2.60;;
5795;SDS011;2924;51.458;7.046;2023-07-13T09:35:58;7.20;;;2.57;;
5795;SDS011;2924;51.458;7.046;2023-07-13T09:38:24;6.70;;;2.30;;
5795;SDS011;2924;51.458;7.046;2023-07-13T09:41:02;9.70;;;2.70;;
5795;SDS011;2924;51.458;7.046;2023-07-13T09:44:00;9.47;;;2.30;;
5795;SDS011;2924;51.458;7.046;2023-07-13T09:46:34;6.00;;;2.20;;
5795;SDS011;2924;51.458;7.046;2023-07-13T09:48:59;7.47;;;2.33;;
5795;SDS011;2924;51.458;7.046;2023-07-13T09:51:25;9.43;;;3.00;;
5795;SDS011;2924;51.458;7.046;2023-07-13T09:53:50;6.20;;;2.10;;
5795;SDS011;2924;51.458;7.046;2023-07-13T09:56:20;13.40;;;2.83;;
5795;SDS011;2924;51.458;7.046;2023-07-13T09:58:51;10.37;;;3.67;;
5795;SDS011;2924;51.458;7.046;2023-07-13T10:01:30;13.57;;;2.87;;
5795;SDS011;2924;51.458;7.046;2023-07-13T10:04:01;6.17;;;2.50;;
5795;SDS011;2924;51.458;7.046;2023-07-13T10:06:26;8.03;;;2.30;;
5795;SDS011;2924;51.458;7.046;2023-07-13T10:08:55;6.60;;;2.73;;
5795;SDS011;2924;51.458;7.046;2023-07-13T10:11:23;6.90;;;2.47;;
5795;SDS011;2924;51.458;7.046;2023-07-13T10:13:59;7.73;;;2.70;;
5795;SDS011;2924;51.458;7.046;2023-07-13T10:16:36;8.03;;;2.70;;
5795;SDS011;2924;51.458;7.046;2023-07-13T10:19:07;10.50;;;2.30;;
5795;SDS011;2924;51.458;7.046;2023-07-13T10:21:57;12.87;;;3.10;;
5795;SDS011;2924;51.458;7.046;2023-07-13T10:24:27;24.90;;;3.80;;
5795;SDS011;2924;51.458;7.046;2023-07-13T10:27:00;7.23;;;3.13;;
5795;SDS011;2924;51.458;7.046;2023-07-13T10:29:39;9.80;;;3.30;;
5795;SDS011;2924;51.458;7.046;2023-07-13T10:32:16;7.87;;;2.63;;
5795;SDS011;2924;51.458;7.046;2023-07-13T10:34:45;16.10;;;2.70;;
5795;SDS011;2924;51.458;7.046;2023-07-13T10:37:16;10.40;;;2.80;;
5795;SDS011;2924;51.458;7.046;2023-07-13T10:39:48;13.50;;;3.20;;
5795;SDS011;2924;51.458;7.046;2023-07-13T10:42:18;7.30;;;3.07;;
5795;SDS011;2924;51.458;7.046;2023-07-13T10:44:55;6.83;;;2.60;;
5795;SDS011;2924;51.458;7.046;2023-07-13T10:47:20;8.57;;;2.97;;
5795;SDS011;2924;51.458;7.046;2023-07-13T10:49:47;5.57;;;2.50;;
5795;SDS011;2924;51.458;7.046;2023-07-13T10:55:09;12.93;;;2.70;;
5795;SDS011;2924;51.458;7.046;2023-07-13T10:58:18;5.53;;;2.40;;
5795;SDS011;2924;51.458;7.046;2023-07-13T11:01:30;10.90;;;3.00;;
5795;SDS011;2924;51.458;7.046;2023-07-13T11:03:47;10.47;;;2.23;;
5795;SDS011;2924;51.458;7.046;2023-07-13T11:06:17;7.03;;;3.00;;
5795;SDS011;2924;51.458;7.046;2023-07-13T11:08:59;7.93;;;2.67;;
5795;SDS011;2924;51.458;7.046;2023-07-13T11:11:47;10.48;;;2.42;;
5795;SDS011;2924;51.458;7.046;2023-07-13T11:16:56;7.43;;;2.65;;
5795;SDS011;2924;51.458;7.046;2023-07-13T11:22:09;5.70;;;2.53;;
5795;SDS011;2924;51.458;7.046;2023-07-13T11:27:37;7.10;;;1.87;;
5795;SDS011;2924;51.458;7.046;2023-07-13T11:30:08;7.63;;;2.57;;
5795;SDS011;2924;51.458;7.046;2023-07-13T11:35:46;7.33;;;2.70;;
5795;SDS011;2924;51.458;7.046;2023-07-13T11:38:32;4.73;;;2.50;;
5795;SDS011;2924;51.458;7.046;2023-07-13T11:41:02;13.37;;;2.37;;
5795;SDS011;2924;51.458;7.046;2023-07-13T11:43:30;5.85;;;1.58;;
5795;SDS011;2924;51.458;7.046;2023-07-13T11:45:58;5.75;;;2.13;;
5795;SDS011;2924;51.458;7.046;2023-07-13T11:48:37;10.90;;;2.92;;
5795;SDS011;2924;51.458;7.046;2023-07-13T11:51:03;8.65;;;2.40;;
5795;SDS011;2924;51.458;7.046;2023-07-13T11:53:33;5.05;;;2.25;;
5795;SDS011;2924;51.458;7.046;2023-07-13T11:56:10;5.47;;;1.80;;
5795;SDS011;2924;51.458;7.046;2023-07-13T11:58:35;11.40;;;2.85;;
5795;SDS011;2924;51.458;7.046;2023-07-13T12:01:02;9.48;;;2.10;;
5795;SDS011;2924;51.458;7.046;2023-07-13T12:03:32;12.85;;;2.53;;
5795;SDS011;2924;51.458;7.046;2023-07-13T12:06:01;5.97;;;1.80;;
5795;SDS011;2924;51.458;7.046;2023-07-13T12:08:30;4.22;;;1.58;;
5795;SDS011;2924;51.458;7.046;2023-07-13T12:11:00;5.78;;;2.55;;
5795;SDS011;2924;51.458;7.046;2023-07-13T12:13:34;6.20;;;2.03;;
5795;SDS011;2924;51.458;7.046;2023-07-13T12:16:02;4.45;;;2.47;;
5795;SDS011;2924;51.458;7.046;2023-07-13T12:18:35;5.43;;;2.13;;
5795;SDS011;2924;51.458;7.046;2023-07-13T12:21:02;3.60;;;1.90;;
5795;SDS011;2924;51.458;7.046;2023-07-13T12:23:29;7.43;;;2.25;;
5795;SDS011;2924;51.458;7.046;2023-07-13T12:26:00;5.13;;;1.63;;
5795;SDS011;2924;51.458;7.046;2023-07-13T12:28:32;15.35;;;2.28;;
5795;SDS011;2924;51.458;7.046;2023-07-13T12:31:01;4.72;;;1.45;;
5795;SDS011;2924;51.458;7.046;2023-07-13T12:33:29;6.57;;;2.25;;
5795;SDS011;2924;51.458;7.046;2023-07-13T12:35:56;5.13;;;2.08;;
5795;SDS011;2924;51.458;7.046;2023-07-13T12:38:24;3.90;;;1.88;;
5795;SDS011;2924;51.458;7.046;2023-07-13T12:40:50;6.55;;;1.88;;
5795;SDS011;2924;51.458;7.046;2023-07-13T12:43:17;5.93;;;1.63;;
5795;SDS011;2924;51.458;7.046;2023-07-13T12:45:56;4.20;;;1.42;;
5795;SDS011;2924;51.458;7.046;2023-07-13T12:48:23;6.00;;;1.63;;
5795;SDS011;2924;51.458;7.046;2023-07-13T12:50:50;3.50;;;1.80;;
5795;SDS011;2924;51.458;7.046;2023-07-13T12:53:18;4.05;;;1.58;;
5795;SDS011;2924;51.458;7.046;2023-07-13T12:55:46;4.55;;;1.90;;
5795;SDS011;2924;51.458;7.046;2023-07-13T12:58:24;4.47;;;1.83;;
5795;SDS011;2924;51.458;7.046;2023-07-13T13:00:53;1.65;;;1.17;;
5795;SDS011;2924;51.458;7.046;2023-07-13T13:03:30;3.30;;;1.50;;
5795;SDS011;2924;51.458;7.046;2023-07-13T13:08:33;3.50;;;1.97;;
5795;SDS011;2924;51.458;7.046;2023-07-13T13:11:00;3.27;;;1.60;;
5795;SDS011;2924;51.458;7.046;2023-07-13T13:13:27;10.73;;;1.70;;
5795;SDS011;2924;51.458;7.046;2023-07-13T13:15:53;4.40;;;1.30;;
5795;SDS011;2924;51.458;7.046;2023-07-13T13:18:22;4.90;;;1.40;;
5795;SDS011;2924;51.458;7.046;2023-07-13T13:20:49;12.03;;;2.30;;
5795;SDS011;2924;51.458;7.046;2023-07-13T13:23:16;7.03;;;2.00;;
5795;SDS011;2924;51.458;7.046;2023-07-13T13:25:47;3.53;;;1.70;;
5795;SDS011;2924;51.458;7.046;2023-07-13T13:28:18;8.70;;;2.40;;
5795;SDS011;2924;51.458;7.046;2023-07-13T13:30:46;4.73;;;2.30;;
5795;SDS011;2924;51.458;7.046;2023-07-13T13:33:16;8.40;;;2.20;;
5795;SDS011;2924;51.458;7.046;2023-07-13T13:35:43;9.63;;;2.57;;
5795;SDS011;2924;51.458;7.046;2023-07-13T13:38:10;12.37;;;2.50;;
5795;SDS011;2924;51.458;7.046;2023-07-13T13:40:39;4.40;;;1.80;;
5795;SDS011;2924;51.458;7.046;2023-07-13T13:43:15;14.70;;;2.40;;
5795;SDS011;2924;51.458;7.046;2023-07-13T13:45:42;4.77;;;2.20;;
5795;SDS011;2924;51.458;7.046;2023-07-13T13:48:50;9.67;;;2.03;;
5795;SDS011;2924;51.458;7.046;2023-07-13T13:50:58;5.40;;;2.13;;
5795;SDS011;2924;51.458;7.046;2023-07-13T13:53:24;9.27;;;2.40;;
5795;SDS011;2924;51.458;7.046;2023-07-13T13:55:50;3.37;;;1.67;;
5795;SDS011;2924;51.458;7.046;2023-07-13T13:58:17;4.77;;;1.90;;
5795;SDS011;2924;51.458;7.046;2023-07-13T14:00:43;7.53;;;2.13;;
5795;SDS011;2924;51.458;7.046;2023-07-13T14:03:20;8.60;;;2.00;;
5795;SDS011;2924;51.458;7.046;2023-07-13T14:05:47;8.50;;;2.03;;
5795;SDS011;2924;51.458;7.046;2023-07-13T14:08:14;4.63;;;1.60;;
5795;SDS011;2924;51.458;7.046;2023-07-13T14:10:41;11.50;;;2.27;;
5795;SDS011;2924;51.458;7.046;2023-07-13T14:13:14;7.43;;;2.23;;
5795;SDS011;2924;51.458;7.046;2023-07-13T14:15:43;6.00;;;3.00;;
5795;SDS011;2924;51.458;7.046;2023-07-13T14:18:10;3.23;;;1.70;;
5795;SDS011;2924;51.458;7.046;2023-07-13T14:20:36;7.63;;;2.50;;
5795;SDS011;2924;51.458;7.046;2023-07-13T14:23:02;10.70;;;3.37;;
5795;SDS011;2924;51.458;7.046;2023-07-13T14:25:28;9.83;;;3.43;;
5795;SDS011;2924;51.458;7.046;2023-07-13T14:27:55;5.57;;;2.97;;
5795;SDS011;2924;51.458;7.046;2023-07-13T14:30:23;7.20;;;2.67;;
5795;SDS011;2924;51.458;7.046;2023-07-13T14:32:50;7.57;;;2.80;;
5795;SDS011;2924;51.458;7.046;2023-07-13T14:35:17;5.83;;;3.43;;
5795;SDS011;2924;51.458;7.046;2023-07-13T14:37:46;9.23;;;3.23;;
5795;SDS011;2924;51.458;7.046;2023-07-13T14:40:16;8.83;;;3.23;;
5795;SDS011;2924;51.458;7.046;2023-07-13T14:42:44;7.20;;;3.53;;
5795;SDS011;2924;51.458;7.046;2023-07-13T14:45:13;7.20;;;3.30;;
5795;SDS011;2924;51.458;7.046;2023-07-13T14:47:44;9.10;;;2.80;;
5795;SDS011;2924;51.458;7.046;2023-07-13T14:52:38;8.73;;;3.17;;
5795;SDS011;2924;51.458;7.046;2023-07-13T14:55:07;6.30;;;3.40;;
5795;SDS011;2924;51.458;7.046;2023-07-13T14:57:35;6.27;;;3.03;;
5795;SDS011;2924;51.458;7.046;2023-07-13T15:00:00;14.43;;;2.70;;
5795;SDS011;2924;51.458;7.046;2023-07-13T15:02:27;4.40;;;1.93;;
5795;SDS011;2924;51.458;7.046;2023-07-13T15:05:05;8.00;;;3.10;;
5795;SDS011;2924;51.458;7.046;2023-07-13T15:07:41;7.53;;;2.30;;
5795;SDS011;2924;51.458;7.046;2023-07-13T15:10:17;5.00;;;2.63;;
5795;SDS011;2924;51.458;7.046;2023-07-13T15:12:45;1.73;;;1.63;;
5795;SDS011;2924;51.458;7.046;2023-07-13T15:15:11;5.93;;;2.07;;
5795;SDS011;2924;51.458;7.046;2023-07-13T15:17:39;6.77;;;2.50;;
5795;SDS011;2924;51.458;7.046;2023-07-13T15:20:25;4.13;;;1.83;;
5795;SDS011;2924;51.458;7.046;2023-07-13T15:22:53;7.37;;;2.97;;
5795;SDS011;2924;51.458;7.046;2023-07-13T15:25:23;2.40;;;2.20;;
5795;SDS011;2924;51.458;7.046;2023-07-13T15:27:51;3.40;;;2.50;;
5795;SDS011;2924;51.458;7.046;2023-07-13T15:30:18;9.30;;;3.40;;
5795;SDS011;2924;51.458;7.046;2023-07-13T15:32:44;10.97;;;2.77;;
5795;SDS011;2924;51.458;7.046;2023-07-13T15:35:14;5.00;;;2.23;;
5795;SDS011;2924;51.458;7.046;2023-07-13T15:37:44;5.50;;;2.60;;
5795;SDS011;2924;51.458;7.046;2023-07-13T15:40:11;5.20;;;2.30;;
5795;SDS011;2924;51.458;7.046;2023-07-13T15:42:38;7.40;;;2.33;;
5795;SDS011;2924;51.458;7.046;2023-07-13T15:45:14;7.77;;;2.80;;
5795;SDS011;2924;51.458;7.046;2023-07-13T15:47:53;11.83;;;3.67;;
5795;SDS011;2924;51.458;7.046;2023-07-13T15:50:19;8.83;;;3.00;;
5795;SDS011;2924;51.458;7.046;2023-07-13T15:52:51;5.30;;;3.30;;
5795;SDS011;2924;51.458;7.046;2023-07-13T15:55:19;4.10;;;3.20;;
5795;SDS011;2924;51.458;7.046;2023-07-13T15:57:46;7.57;;;4.23;;
5795;SDS011;2924;51.458;7.046;2023-07-13T16:00:25;4.97;;;2.97;;